sensor_id;sensor_type;location;lat;lon;timestamp;P1;durP1;ratioP1;P2;durP2;ratioP2
18302;SDS011;9277;37.980;23.748;2023-03-11T00:01:50;3.55;;;1.70;;
18302;SDS011;9277;37.980;23.748;2023-03-11T00:04:16;3.55;;;1.30;;
18302;SDS011;9277;37.980;23.748;2023-03-11T00:06:43;4.68;;;1.83;;
18302;SDS011;9277;37.980;23.748;2023-03-11T00:09:10;4.15;;;1.48;;
18302;SDS011;9277;37.980;23.748;2023-03-11T00:11:36;1.60;;;1.50;;
18302;SDS011;9277;37.980;23.748;2023-03-11T00:14:05;1.52;;;1.10;;
18302;SDS011;9277;37.980;23.748;2023-03-11T00:16:31;5.90;;;1.50;;
18302;SDS011;9277;37.980;23.748;2023-03-11T00:18:58;1.75;;;1.25;;
18302;SDS011;9277;37.980;23.748;2023-03-11T00:21:25;5.65;;;1.80;;
18302;SDS011;9277;37.980;23.748;2023-03-11T00:23:52;3.67;;;1.67;;
18302;SDS011;9277;37.980;23.748;2023-03-11T00:26:19;4.00;;;1.63;;
18302;SDS011;9277;37.980;23.748;2023-03-11T00:28:45;3.65;;;1.33;;
18302;SDS011;9277;37.980;23.748;2023-03-11T00:31:15;8.07;;;1.83;;
18302;SDS011;9277;37.980;23.748;2023-03-11T00:33:41;3.55;;;1.40;;
18302;SDS011;9277;37.980;23.748;2023-03-11T00:36:11;7.25;;;1.65;;
18302;SDS011;9277;37.980;23.748;2023-03-11T00:38:42;3.72;;;1.88;;
18302;SDS011;9277;37.980;23.748;2023-03-11T00:41:08;3.13;;;1.45;;
18302;SDS011;9277;37.980;23.748;2023-03-11T00:43:35;4.22;;;1.35;;
18302;SDS011;9277;37.980;23.748;2023-03-11T00:46:02;4.85;;;1.60;;
18302;SDS011;9277;37.980;23.748;2023-03-11T00:48:31;4.25;;;1.35;;
18302;SDS011;9277;37.980;23.748;2023-03-11T00:50:58;8.40;;;1.58;;
18302;SDS011;9277;37.980;23.748;2023-03-11T00:53:25;15.98;;;2.78;;
18302;SDS011;9277;37.980;23.748;2023-03-11T00:55:52;10.30;;;1.85;;
18302;SDS011;9277;37.980;23.748;2023-03-11T00:58:18;5.50;;;1.50;;
18302;SDS011;9277;37.980;23.748;2023-03-11T01:00:46;5.60;;;1.75;;
18302;SDS011;9277;37.980;23.748;2023-03-11T01:03:13;5.95;;;1.33;;
18302;SDS011;9277;37.980;23.748;2023-03-11T01:05:41;12.63;;;2.08;;
18302;SDS011;9277;37.980;23.748;2023-03-11T01:08:08;7.97;;;2.03;;
18302;SDS011;9277;37.980;23.748;2023-03-11T01:10:35;6.72;;;1.70;;
18302;SDS011;9277;37.980;23.748;2023-03-11T01:13:02;7.18;;;1.60;;
18302;SDS011;9277;37.980;23.748;2023-03-11T01:15:30;8.77;;;2.33;;
18302;SDS011;9277;37.980;23.748;2023-03-11T01:17:57;12.60;;;2.55;;
18302;SDS011;9277;37.980;23.748;2023-03-11T01:20:24;6.05;;;1.85;;
18302;SDS011;9277;37.980;23.748;2023-03-11T01:22:52;8.38;;;1.90;;
18302;SDS011;9277;37.980;23.748;2023-03-11T01:25:19;7.18;;;1.48;;
18302;SDS011;9277;37.980;23.748;2023-03-11T01:27:46;5.97;;;1.52;;
18302;SDS011;9277;37.980;23.748;2023-03-11T01:30:13;5.40;;;1.30;;
18302;SDS011;9277;37.980;23.748;2023-03-11T01:32:40;8.65;;;2.10;;
18302;SDS011;9277;37.980;23.748;2023-03-11T01:35:08;8.90;;;1.67;;
18302;SDS011;9277;37.980;23.748;2023-03-11T01:37:35;8.30;;;1.67;;
18302;SDS011;9277;37.980;23.748;2023-03-11T01:40:04;7.55;;;1.38;;
18302;SDS011;9277;37.980;23.748;2023-03-11T01:42:32;6.95;;;1.90;;
18302;SDS011;9277;37.980;23.748;2023-03-11T01:44:59;3.55;;;1.20;;
18302;SDS011;9277;37.980;23.748;2023-03-11T01:47:33;7.38;;;1.60;;
18302;SDS011;9277;37.980;23.748;2023-03-11T01:50:00;3.72;;;1.00;;
18302;SDS011;9277;37.980;23.748;2023-03-11T01:52:27;9.30;;;1.88;;
18302;SDS011;9277;37.980;23.748;2023-03-11T01:54:54;4.07;;;1.55;;
18302;SDS011;9277;37.980;23.748;2023-03-11T01:57:23;3.63;;;1.92;;
18302;SDS011;9277;37.980;23.748;2023-03-11T01:59:51;3.30;;;1.55;;
18302;SDS011;9277;37.980;23.748;2023-03-11T02:02:25;12.23;;;1.85;;
18302;SDS011;9277;37.980;23.748;2023-03-11T02:04:58;10.10;;;1.85;;
18302;SDS011;9277;37.980;23.748;2023-03-11T02:07:25;2.67;;;1.35;;
18302;SDS011;9277;37.980;23.748;2023-03-11T02:09:54;1.98;;;1.10;;
18302;SDS011;9277;37.980;23.748;2023-03-11T02:12:20;5.80;;;1.83;;
18302;SDS011;9277;37.980;23.748;2023-03-11T02:14:52;4.60;;;1.98;;
18302;SDS011;9277;37.980;23.748;2023-03-11T02:17:19;3.95;;;1.58;;
18302;SDS011;9277;37.980;23.748;2023-03-11T02:19:58;4.72;;;1.27;;
18302;SDS011;9277;37.980;23.748;2023-03-11T02:22:41;5.80;;;1.35;;
18302;SDS011;9277;37.980;23.748;2023-03-11T02:25:10;6.70;;;1.50;;
18302;SDS011;9277;37.980;23.748;2023-03-11T02:27:45;5.65;;;1.45;;
18302;SDS011;9277;37.980;23.748;2023-03-11T02:30:14;1.40;;;1.08;;
18302;SDS011;9277;37.980;23.748;2023-03-11T02:32:44;9.10;;;1.52;;
18302;SDS011;9277;37.980;23.748;2023-03-11T02:35:13;7.03;;;1.52;;
18302;SDS011;9277;37.980;23.748;2023-03-11T02:37:42;2.83;;;1.10;;
18302;SDS011;9277;37.980;23.748;2023-03-11T02:42:59;6.45;;;1.40;;
18302;SDS011;9277;37.980;23.748;2023-03-11T02:45:28;8.88;;;1.50;;
18302;SDS011;9277;37.980;23.748;2023-03-11T02:47:56;9.77;;;2.30;;
18302;SDS011;9277;37.980;23.748;2023-03-11T02:50:24;6.57;;;1.83;;
18302;SDS011;9277;37.980;23.748;2023-03-11T02:52:52;4.40;;;1.73;;
18302;SDS011;9277;37.980;23.748;2023-03-11T02:55:26;12.85;;;2.15;;
18302;SDS011;9277;37.980;23.748;2023-03-11T02:57:55;12.20;;;1.85;;
18302;SDS011;9277;37.980;23.748;2023-03-11T03:00:26;7.68;;;1.30;;
18302;SDS011;9277;37.980;23.748;2023-03-11T03:02:53;17.63;;;2.17;;
18302;SDS011;9277;37.980;23.748;2023-03-11T03:05:20;6.68;;;1.42;;
18302;SDS011;9277;37.980;23.748;2023-03-11T03:07:50;8.65;;;2.13;;
18302;SDS011;9277;37.980;23.748;2023-03-11T03:10:19;10.80;;;2.17;;
18302;SDS011;9277;37.980;23.748;2023-03-11T03:12:46;9.95;;;1.92;;
18302;SDS011;9277;37.980;23.748;2023-03-11T03:15:15;19.17;;;2.65;;
18302;SDS011;9277;37.980;23.748;2023-03-11T03:17:43;9.50;;;1.83;;
18302;SDS011;9277;37.980;23.748;2023-03-11T03:20:15;14.57;;;1.80;;
18302;SDS011;9277;37.980;23.748;2023-03-11T03:22:51;16.67;;;3.05;;
18302;SDS011;9277;37.980;23.748;2023-03-11T03:25:18;7.38;;;2.00;;
18302;SDS011;9277;37.980;23.748;2023-03-11T03:28:02;7.82;;;2.20;;
18302;SDS011;9277;37.980;23.748;2023-03-11T03:30:29;9.80;;;1.77;;
18302;SDS011;9277;37.980;23.748;2023-03-11T03:32:58;14.27;;;2.15;;
18302;SDS011;9277;37.980;23.748;2023-03-11T03:35:25;8.50;;;1.95;;
18302;SDS011;9277;37.980;23.748;2023-03-11T03:37:52;6.43;;;1.92;;
18302;SDS011;9277;37.980;23.748;2023-03-11T03:40:20;7.57;;;2.20;;
18302;SDS011;9277;37.980;23.748;2023-03-11T03:42:47;19.27;;;2.15;;
18302;SDS011;9277;37.980;23.748;2023-03-11T03:45:14;8.20;;;1.70;;
18302;SDS011;9277;37.980;23.748;2023-03-11T03:47:41;8.23;;;2.22;;
18302;SDS011;9277;37.980;23.748;2023-03-11T03:50:12;9.25;;;1.48;;
18302;SDS011;9277;37.980;23.748;2023-03-11T03:52:41;12.15;;;3.25;;
18302;SDS011;9277;37.980;23.748;2023-03-11T03:55:09;11.30;;;2.65;;
18302;SDS011;9277;37.980;23.748;2023-03-11T03:57:37;11.02;;;2.70;;
18302;SDS011;9277;37.980;23.748;2023-03-11T04:00:06;11.05;;;2.08;;
18302;SDS011;9277;37.980;23.748;2023-03-11T04:02:34;17.67;;;2.70;;
18302;SDS011;9277;37.980;23.748;2023-03-11T04:05:01;10.93;;;2.83;;
18302;SDS011;9277;37.980;23.748;2023-03-11T04:07:29;12.00;;;2.55;;
18302;SDS011;9277;37.980;23.748;2023-03-11T04:09:56;6.82;;;2.63;;
18302;SDS011;9277;37.980;23.748;2023-03-11T04:12:23;6.55;;;2.53;;
18302;SDS011;9277;37.980;23.748;2023-03-11T04:14:50;6.70;;;1.35;;
18302;SDS011;9277;37.980;23.748;2023-03-11T04:17:16;2.10;;;1.15;;
18302;SDS011;9277;37.980;23.748;2023-03-11T04:19:43;6.47;;;1.08;;
18302;SDS011;9277;37.980;23.748;2023-03-11T04:22:10;5.93;;;1.20;;
18302;SDS011;9277;37.980;23.748;2023-03-11T04:24:38;2.92;;;0.93;;
18302;SDS011;9277;37.980;23.748;2023-03-11T04:27:05;1.88;;;1.05;;
18302;SDS011;9277;37.980;23.748;2023-03-11T04:29:32;2.88;;;1.00;;
18302;SDS011;9277;37.980;23.748;2023-03-11T04:31:58;2.40;;;1.20;;
18302;SDS011;9277;37.980;23.748;2023-03-11T04:34:25;2.67;;;1.05;;
18302;SDS011;9277;37.980;23.748;2023-03-11T04:36:52;1.98;;;1.02;;
18302;SDS011;9277;37.980;23.748;2023-03-11T04:39:19;6.22;;;1.23;;
18302;SDS011;9277;37.980;23.748;2023-03-11T04:41:47;2.33;;;0.90;;
18302;SDS011;9277;37.980;23.748;2023-03-11T04:44:14;4.82;;;1.10;;
18302;SDS011;9277;37.980;23.748;2023-03-11T04:46:41;2.40;;;0.90;;
18302;SDS011;9277;37.980;23.748;2023-03-11T04:49:08;1.75;;;1.20;;
18302;SDS011;9277;37.980;23.748;2023-03-11T04:51:35;3.72;;;1.27;;
18302;SDS011;9277;37.980;23.748;2023-03-11T04:54:02;1.63;;;1.30;;
18302;SDS011;9277;37.980;23.748;2023-03-11T04:56:28;2.58;;;1.20;;
18302;SDS011;9277;37.980;23.748;2023-03-11T04:58:57;3.97;;;1.17;;
18302;SDS011;9277;37.980;23.748;2023-03-11T05:01:23;1.30;;;0.98;;
18302;SDS011;9277;37.980;23.748;2023-03-11T05:03:50;2.80;;;0.95;;
18302;SDS011;9277;37.980;23.748;2023-03-11T05:06:17;0.82;;;0.65;;
18302;SDS011;9277;37.980;23.748;2023-03-11T05:08:44;2.67;;;1.00;;
18302;SDS011;9277;37.980;23.748;2023-03-11T05:11:10;1.45;;;1.13;;
18302;SDS011;9277;37.980;23.748;2023-03-11T05:13:37;1.35;;;1.25;;
18302;SDS011;9277;37.980;23.748;2023-03-11T05:16:06;0.80;;;0.80;;
18302;SDS011;9277;37.980;23.748;2023-03-11T05:18:33;2.47;;;1.10;;
18302;SDS011;9277;37.980;23.748;2023-03-11T05:20:59;2.83;;;0.80;;
18302;SDS011;9277;37.980;23.748;2023-03-11T05:23:26;3.58;;;0.90;;
18302;SDS011;9277;37.980;23.748;2023-03-11T05:25:53;0.80;;;0.80;;
18302;SDS011;9277;37.980;23.748;2023-03-11T05:28:20;0.80;;;0.80;;
18302;SDS011;9277;37.980;23.748;2023-03-11T05:30:47;1.13;;;0.93;;
18302;SDS011;9277;37.980;23.748;2023-03-11T05:33:16;2.67;;;1.00;;
18302;SDS011;9277;37.980;23.748;2023-03-11T05:35:43;2.67;;;1.05;;
18302;SDS011;9277;37.980;23.748;2023-03-11T05:38:09;2.75;;;1.55;;
18302;SDS011;9277;37.980;23.748;2023-03-11T05:40:36;5.00;;;1.35;;
18302;SDS011;9277;37.980;23.748;2023-03-11T05:43:03;4.57;;;1.10;;
18302;SDS011;9277;37.980;23.748;2023-03-11T05:45:30;2.70;;;1.15;;
18302;SDS011;9277;37.980;23.748;2023-03-11T05:47:57;4.38;;;1.23;;
18302;SDS011;9277;37.980;23.748;2023-03-11T05:50:25;2.55;;;1.50;;
18302;SDS011;9277;37.980;23.748;2023-03-11T05:52:52;3.40;;;1.45;;
18302;SDS011;9277;37.980;23.748;2023-03-11T05:55:18;2.83;;;1.13;;
18302;SDS011;9277;37.980;23.748;2023-03-11T05:57:45;1.63;;;1.52;;
18302;SDS011;9277;37.980;23.748;2023-03-11T06:00:12;9.00;;;1.77;;
18302;SDS011;9277;37.980;23.748;2023-03-11T06:02:39;2.97;;;1.90;;
18302;SDS011;9277;37.980;23.748;2023-03-11T06:05:07;2.33;;;1.48;;
18302;SDS011;9277;37.980;23.748;2023-03-11T06:07:35;2.28;;;1.20;;
18302;SDS011;9277;37.980;23.748;2023-03-11T06:10:03;8.25;;;1.52;;
18302;SDS011;9277;37.980;23.748;2023-03-11T06:12:32;3.15;;;1.27;;
18302;SDS011;9277;37.980;23.748;2023-03-11T06:14:58;0.98;;;0.98;;
18302;SDS011;9277;37.980;23.748;2023-03-11T06:17:25;1.13;;;1.10;;
18302;SDS011;9277;37.980;23.748;2023-03-11T06:19:52;4.53;;;1.40;;
18302;SDS011;9277;37.980;23.748;2023-03-11T06:22:19;4.88;;;1.27;;
18302;SDS011;9277;37.980;23.748;2023-03-11T06:24:47;1.80;;;1.45;;
18302;SDS011;9277;37.980;23.748;2023-03-11T06:27:14;2.08;;;1.20;;
18302;SDS011;9277;37.980;23.748;2023-03-11T06:29:40;1.42;;;1.13;;
18302;SDS011;9277;37.980;23.748;2023-03-11T06:32:07;1.30;;;1.20;;
18302;SDS011;9277;37.980;23.748;2023-03-11T06:34:34;2.92;;;1.48;;
18302;SDS011;9277;37.980;23.748;2023-03-11T06:37:01;3.78;;;1.50;;
18302;SDS011;9277;37.980;23.748;2023-03-11T06:39:28;2.83;;;1.60;;
18302;SDS011;9277;37.980;23.748;2023-03-11T06:41:56;3.60;;;1.23;;
18302;SDS011;9277;37.980;23.748;2023-03-11T06:44:23;4.28;;;1.48;;
18302;SDS011;9277;37.980;23.748;2023-03-11T06:46:50;1.35;;;1.25;;
18302;SDS011;9277;37.980;23.748;2023-03-11T06:49:17;3.83;;;1.45;;
18302;SDS011;9277;37.980;23.748;2023-03-11T06:51:44;6.70;;;1.58;;
18302;SDS011;9277;37.980;23.748;2023-03-11T06:54:10;3.70;;;1.40;;
18302;SDS011;9277;37.980;23.748;2023-03-11T06:56:37;4.20;;;1.55;;
18302;SDS011;9277;37.980;23.748;2023-03-11T06:59:05;4.60;;;1.90;;
18302;SDS011;9277;37.980;23.748;2023-03-11T07:01:32;3.05;;;1.75;;
18302;SDS011;9277;37.980;23.748;2023-03-11T07:03:59;5.30;;;1.95;;
18302;SDS011;9277;37.980;23.748;2023-03-11T07:06:26;3.45;;;1.85;;
18302;SDS011;9277;37.980;23.748;2023-03-11T07:08:53;3.08;;;1.60;;
18302;SDS011;9277;37.980;23.748;2023-03-11T07:11:21;4.00;;;1.45;;
18302;SDS011;9277;37.980;23.748;2023-03-11T07:13:48;6.55;;;1.77;;
18302;SDS011;9277;37.980;23.748;2023-03-11T07:16:17;6.40;;;1.83;;
18302;SDS011;9277;37.980;23.748;2023-03-11T07:18:45;19.15;;;2.45;;
18302;SDS011;9277;37.980;23.748;2023-03-11T07:21:13;7.10;;;2.00;;
18302;SDS011;9277;37.980;23.748;2023-03-11T07:23:40;8.80;;;1.60;;
18302;SDS011;9277;37.980;23.748;2023-03-11T07:26:08;9.70;;;1.75;;
18302;SDS011;9277;37.980;23.748;2023-03-11T07:28:35;4.32;;;2.00;;
18302;SDS011;9277;37.980;23.748;2023-03-11T07:31:06;20.95;;;2.45;;
18302;SDS011;9277;37.980;23.748;2023-03-11T07:33:34;6.07;;;2.13;;
18302;SDS011;9277;37.980;23.748;2023-03-11T07:36:05;11.88;;;1.80;;
18302;SDS011;9277;37.980;23.748;2023-03-11T07:38:32;11.00;;;2.00;;
18302;SDS011;9277;37.980;23.748;2023-03-11T07:40:59;4.68;;;2.38;;
18302;SDS011;9277;37.980;23.748;2023-03-11T07:43:26;3.38;;;1.70;;
18302;SDS011;9277;37.980;23.748;2023-03-11T07:46:01;6.68;;;1.98;;
18302;SDS011;9277;37.980;23.748;2023-03-11T07:48:27;4.65;;;1.75;;
18302;SDS011;9277;37.980;23.748;2023-03-11T07:51:00;5.43;;;1.60;;
18302;SDS011;9277;37.980;23.748;2023-03-11T07:53:26;9.75;;;1.90;;
18302;SDS011;9277;37.980;23.748;2023-03-11T07:55:54;5.63;;;1.70;;
18302;SDS011;9277;37.980;23.748;2023-03-11T07:58:21;3.90;;;1.80;;
18302;SDS011;9277;37.980;23.748;2023-03-11T08:00:48;3.53;;;1.77;;
18302;SDS011;9277;37.980;23.748;2023-03-11T08:03:14;12.48;;;2.00;;
18302;SDS011;9277;37.980;23.748;2023-03-11T08:05:41;4.88;;;1.55;;
18302;SDS011;9277;37.980;23.748;2023-03-11T08:08:09;6.15;;;1.75;;
18302;SDS011;9277;37.980;23.748;2023-03-11T08:10:36;9.07;;;1.83;;
18302;SDS011;9277;37.980;23.748;2023-03-11T08:13:03;5.20;;;1.92;;
18302;SDS011;9277;37.980;23.748;2023-03-11T08:15:30;6.25;;;1.42;;
18302;SDS011;9277;37.980;23.748;2023-03-11T08:17:57;8.77;;;1.50;;
18302;SDS011;9277;37.980;23.748;2023-03-11T08:20:23;3.33;;;1.55;;
18302;SDS011;9277;37.980;23.748;2023-03-11T08:22:50;5.18;;;1.48;;
18302;SDS011;9277;37.980;23.748;2023-03-11T08:25:18;3.65;;;1.80;;
18302;SDS011;9277;37.980;23.748;2023-03-11T08:27:45;7.40;;;1.83;;
18302;SDS011;9277;37.980;23.748;2023-03-11T08:30:12;10.80;;;2.15;;
18302;SDS011;9277;37.980;23.748;2023-03-11T08:32:39;4.07;;;1.60;;
18302;SDS011;9277;37.980;23.748;2023-03-11T08:35:06;9.90;;;2.40;;
18302;SDS011;9277;37.980;23.748;2023-03-11T08:37:33;6.10;;;2.17;;
18302;SDS011;9277;37.980;23.748;2023-03-11T08:40:00;4.32;;;1.67;;
18302;SDS011;9277;37.980;23.748;2023-03-11T08:42:28;3.90;;;1.85;;
18302;SDS011;9277;37.980;23.748;2023-03-11T08:44:54;4.40;;;1.80;;
18302;SDS011;9277;37.980;23.748;2023-03-11T08:47:21;3.22;;;1.73;;
18302;SDS011;9277;37.980;23.748;2023-03-11T08:49:48;5.70;;;1.50;;
18302;SDS011;9277;37.980;23.748;2023-03-11T08:52:15;6.45;;;1.83;;
18302;SDS011;9277;37.980;23.748;2023-03-11T08:54:41;3.67;;;2.08;;
18302;SDS011;9277;37.980;23.748;2023-03-11T08:57:08;7.90;;;2.13;;
18302;SDS011;9277;37.980;23.748;2023-03-11T08:59:36;2.65;;;1.75;;
18302;SDS011;9277;37.980;23.748;2023-03-11T09:02:03;3.25;;;2.10;;
18302;SDS011;9277;37.980;23.748;2023-03-11T09:04:30;2.70;;;1.92;;
18302;SDS011;9277;37.980;23.748;2023-03-11T09:06:57;3.30;;;1.70;;
18302;SDS011;9277;37.980;23.748;2023-03-11T09:09:23;7.60;;;2.20;;
18302;SDS011;9277;37.980;23.748;2023-03-11T09:11:50;5.60;;;2.10;;
18302;SDS011;9277;37.980;23.748;2023-03-11T09:14:17;6.85;;;2.33;;
18302;SDS011;9277;37.980;23.748;2023-03-11T09:16:45;4.13;;;1.73;;
18302;SDS011;9277;37.980;23.748;2023-03-11T09:19:12;5.53;;;1.42;;
18302;SDS011;9277;37.980;23.748;2023-03-11T09:21:39;16.70;;;1.90;;
18302;SDS011;9277;37.980;23.748;2023-03-11T09:24:06;5.55;;;2.15;;
18302;SDS011;9277;37.980;23.748;2023-03-11T09:26:32;5.10;;;2.03;;
18302;SDS011;9277;37.980;23.748;2023-03-11T09:29:00;4.35;;;2.08;;
18302;SDS011;9277;37.980;23.748;2023-03-11T09:31:27;5.05;;;1.70;;
18302;SDS011;9277;37.980;23.748;2023-03-11T09:33:55;11.27;;;2.20;;
18302;SDS011;9277;37.980;23.748;2023-03-11T09:36:22;7.63;;;2.60;;
18302;SDS011;9277;37.980;23.748;2023-03-11T09:38:49;5.80;;;1.60;;
18302;SDS011;9277;37.980;23.748;2023-03-11T09:41:26;4.15;;;1.52;;
18302;SDS011;9277;37.980;23.748;2023-03-11T09:44:04;4.45;;;2.17;;
18302;SDS011;9277;37.980;23.748;2023-03-11T09:49:21;3.22;;;1.63;;
18302;SDS011;9277;37.980;23.748;2023-03-11T09:51:52;6.43;;;1.80;;
18302;SDS011;9277;37.980;23.748;2023-03-11T09:54:23;3.90;;;1.40;;
18302;SDS011;9277;37.980;23.748;2023-03-11T09:56:53;7.30;;;2.58;;
18302;SDS011;9277;37.980;23.748;2023-03-11T09:59:22;5.00;;;1.77;;
18302;SDS011;9277;37.980;23.748;2023-03-11T10:01:52;6.60;;;2.58;;
18302;SDS011;9277;37.980;23.748;2023-03-11T10:04:20;4.63;;;1.98;;
18302;SDS011;9277;37.980;23.748;2023-03-11T10:06:52;4.43;;;1.88;;
18302;SDS011;9277;37.980;23.748;2023-03-11T10:09:25;4.70;;;1.67;;
18302;SDS011;9277;37.980;23.748;2023-03-11T10:12:02;4.70;;;1.88;;
18302;SDS011;9277;37.980;23.748;2023-03-11T10:14:38;5.60;;;1.85;;
18302;SDS011;9277;37.980;23.748;2023-03-11T10:17:11;5.30;;;1.80;;
18302;SDS011;9277;37.980;23.748;2023-03-11T10:19:40;6.47;;;1.92;;
18302;SDS011;9277;37.980;23.748;2023-03-11T10:22:13;4.90;;;1.58;;
18302;SDS011;9277;37.980;23.748;2023-03-11T10:24:45;3.95;;;1.85;;
18302;SDS011;9277;37.980;23.748;2023-03-11T10:27:15;4.47;;;2.17;;
18302;SDS011;9277;37.980;23.748;2023-03-11T10:29:45;12.45;;;3.17;;
18302;SDS011;9277;37.980;23.748;2023-03-11T10:32:14;7.65;;;2.13;;
18302;SDS011;9277;37.980;23.748;2023-03-11T10:34:43;5.80;;;2.08;;
18302;SDS011;9277;37.980;23.748;2023-03-11T10:37:15;4.72;;;1.40;;
18302;SDS011;9277;37.980;23.748;2023-03-11T10:39:42;3.47;;;1.88;;
18302;SDS011;9277;37.980;23.748;2023-03-11T10:42:12;6.63;;;1.80;;
18302;SDS011;9277;37.980;23.748;2023-03-11T10:44:40;3.25;;;1.40;;
18302;SDS011;9277;37.980;23.748;2023-03-11T10:47:11;2.80;;;1.80;;
18302;SDS011;9277;37.980;23.748;2023-03-11T10:49:40;6.03;;;1.92;;
18302;SDS011;9277;37.980;23.748;2023-03-11T10:52:07;5.88;;;2.03;;
18302;SDS011;9277;37.980;23.748;2023-03-11T10:54:35;5.20;;;1.92;;
18302;SDS011;9277;37.980;23.748;2023-03-11T10:57:04;4.00;;;1.70;;
18302;SDS011;9277;37.980;23.748;2023-03-11T10:59:31;7.28;;;1.55;;
18302;SDS011;9277;37.980;23.748;2023-03-11T11:01:59;5.90;;;1.95;;
18302;SDS011;9277;37.980;23.748;2023-03-11T11:04:30;6.13;;;2.33;;
18302;SDS011;9277;37.980;23.748;2023-03-11T11:07:06;8.55;;;2.90;;
18302;SDS011;9277;37.980;23.748;2023-03-11T11:09:46;7.43;;;2.53;;
18302;SDS011;9277;37.980;23.748;2023-03-11T11:12:14;9.20;;;2.45;;
18302;SDS011;9277;37.980;23.748;2023-03-11T11:14:42;7.63;;;1.92;;
18302;SDS011;9277;37.980;23.748;2023-03-11T11:17:14;6.28;;;2.00;;
18302;SDS011;9277;37.980;23.748;2023-03-11T11:19:43;3.33;;;2.20;;
18302;SDS011;9277;37.980;23.748;2023-03-11T11:22:10;3.03;;;1.55;;
18302;SDS011;9277;37.980;23.748;2023-03-11T11:24:42;5.57;;;2.10;;
18302;SDS011;9277;37.980;23.748;2023-03-11T11:27:14;8.07;;;1.90;;
18302;SDS011;9277;37.980;23.748;2023-03-11T11:29:42;3.58;;;1.63;;
18302;SDS011;9277;37.980;23.748;2023-03-11T11:32:10;2.42;;;1.65;;
18302;SDS011;9277;37.980;23.748;2023-03-11T11:34:47;9.60;;;2.63;;
18302;SDS011;9277;37.980;23.748;2023-03-11T11:37:18;5.18;;;1.38;;
18302;SDS011;9277;37.980;23.748;2023-03-11T11:39:46;6.03;;;2.17;;
18302;SDS011;9277;37.980;23.748;2023-03-11T11:42:17;5.97;;;2.13;;
18302;SDS011;9277;37.980;23.748;2023-03-11T11:44:44;4.72;;;1.77;;
18302;SDS011;9277;37.980;23.748;2023-03-11T11:47:12;7.05;;;2.15;;
18302;SDS011;9277;37.980;23.748;2023-03-11T11:49:43;5.10;;;2.00;;
18302;SDS011;9277;37.980;23.748;2023-03-11T11:52:14;5.45;;;1.95;;
18302;SDS011;9277;37.980;23.748;2023-03-11T11:54:42;4.85;;;2.03;;
18302;SDS011;9277;37.980;23.748;2023-03-11T11:57:11;9.82;;;2.83;;
18302;SDS011;9277;37.980;23.748;2023-03-11T11:59:40;13.73;;;2.67;;
18302;SDS011;9277;37.980;23.748;2023-03-11T12:02:11;4.88;;;2.50;;
18302;SDS011;9277;37.980;23.748;2023-03-11T12:04:49;5.07;;;2.25;;
18302;SDS011;9277;37.980;23.748;2023-03-11T12:07:24;8.00;;;2.20;;
18302;SDS011;9277;37.980;23.748;2023-03-11T12:09:56;4.90;;;1.77;;
18302;SDS011;9277;37.980;23.748;2023-03-11T12:12:26;8.77;;;2.10;;
18302;SDS011;9277;37.980;23.748;2023-03-11T12:14:59;4.68;;;2.22;;
18302;SDS011;9277;37.980;23.748;2023-03-11T12:17:26;8.55;;;2.38;;
18302;SDS011;9277;37.980;23.748;2023-03-11T12:19:55;4.07;;;1.70;;
18302;SDS011;9277;37.980;23.748;2023-03-11T12:25:12;6.45;;;1.90;;
18302;SDS011;9277;37.980;23.748;2023-03-11T12:27:46;2.33;;;2.00;;
18302;SDS011;9277;37.980;23.748;2023-03-11T12:30:17;2.97;;;2.40;;
18302;SDS011;9277;37.980;23.748;2023-03-11T12:32:46;4.85;;;2.65;;
18302;SDS011;9277;37.980;23.748;2023-03-11T12:35:19;6.60;;;2.20;;
18302;SDS011;9277;37.980;23.748;2023-03-11T12:37:53;3.67;;;1.65;;
18302;SDS011;9277;37.980;23.748;2023-03-11T12:43:17;6.40;;;2.35;;
18302;SDS011;9277;37.980;23.748;2023-03-11T12:45:49;3.63;;;1.60;;
18302;SDS011;9277;37.980;23.748;2023-03-11T12:48:24;4.50;;;2.05;;
18302;SDS011;9277;37.980;23.748;2023-03-11T12:50:51;6.35;;;2.13;;
18302;SDS011;9277;37.980;23.748;2023-03-11T12:53:19;3.63;;;1.92;;
18302;SDS011;9277;37.980;23.748;2023-03-11T12:55:58;8.52;;;2.45;;
18302;SDS011;9277;37.980;23.748;2023-03-11T13:01:18;8.23;;;2.38;;
18302;SDS011;9277;37.980;23.748;2023-03-11T13:03:50;3.25;;;2.00;;
18302;SDS011;9277;37.980;23.748;2023-03-11T13:09:11;6.47;;;2.50;;
18302;SDS011;9277;37.980;23.748;2023-03-11T13:11:41;10.05;;;2.10;;
18302;SDS011;9277;37.980;23.748;2023-03-11T13:14:22;6.03;;;2.25;;
18302;SDS011;9277;37.980;23.748;2023-03-11T13:16:51;5.38;;;1.90;;
18302;SDS011;9277;37.980;23.748;2023-03-11T13:19:36;7.95;;;2.33;;
18302;SDS011;9277;37.980;23.748;2023-03-11T13:22:03;4.25;;;1.80;;
18302;SDS011;9277;37.980;23.748;2023-03-11T13:27:18;5.18;;;2.05;;
18302;SDS011;9277;37.980;23.748;2023-03-11T13:29:50;5.35;;;2.05;;
18302;SDS011;9277;37.980;23.748;2023-03-11T13:32:27;4.90;;;2.08;;
18302;SDS011;9277;37.980;23.748;2023-03-11T13:34:59;6.15;;;1.83;;
18302;SDS011;9277;37.980;23.748;2023-03-11T13:37:31;4.85;;;1.75;;
18302;SDS011;9277;37.980;23.748;2023-03-11T13:40:05;6.32;;;2.42;;
18302;SDS011;9277;37.980;23.748;2023-03-11T13:42:40;9.55;;;2.03;;
18302;SDS011;9277;37.980;23.748;2023-03-11T13:45:12;7.20;;;1.73;;
18302;SDS011;9277;37.980;23.748;2023-03-11T13:47:44;5.15;;;2.00;;
18302;SDS011;9277;37.980;23.748;2023-03-11T13:50:15;10.02;;;2.50;;
18302;SDS011;9277;37.980;23.748;2023-03-11T13:52:45;4.53;;;2.15;;
18302;SDS011;9277;37.980;23.748;2023-03-11T13:55:14;7.47;;;2.22;;
18302;SDS011;9277;37.980;23.748;2023-03-11T13:57:48;7.90;;;2.20;;
18302;SDS011;9277;37.980;23.748;2023-03-11T14:00:15;4.32;;;2.35;;
18302;SDS011;9277;37.980;23.748;2023-03-11T14:02:46;7.88;;;2.08;;
18302;SDS011;9277;37.980;23.748;2023-03-11T14:05:15;9.85;;;2.53;;
18302;SDS011;9277;37.980;23.748;2023-03-11T14:07:43;4.85;;;1.80;;
18302;SDS011;9277;37.980;23.748;2023-03-11T14:10:24;6.13;;;2.67;;
18302;SDS011;9277;37.980;23.748;2023-03-11T14:12:51;12.32;;;2.40;;
18302;SDS011;9277;37.980;23.748;2023-03-11T14:15:19;5.70;;;2.72;;
18302;SDS011;9277;37.980;23.748;2023-03-11T14:17:48;7.72;;;2.15;;
18302;SDS011;9277;37.980;23.748;2023-03-11T14:20:16;9.15;;;2.75;;
18302;SDS011;9277;37.980;23.748;2023-03-11T14:22:44;4.68;;;2.75;;
18302;SDS011;9277;37.980;23.748;2023-03-11T14:25:15;8.38;;;1.77;;
18302;SDS011;9277;37.980;23.748;2023-03-11T14:27:44;9.73;;;2.45;;
18302;SDS011;9277;37.980;23.748;2023-03-11T14:30:17;4.03;;;1.83;;
18302;SDS011;9277;37.980;23.748;2023-03-11T14:32:54;4.88;;;1.55;;
18302;SDS011;9277;37.980;23.748;2023-03-11T14:35:23;3.85;;;1.90;;
18302;SDS011;9277;37.980;23.748;2023-03-11T14:37:49;8.73;;;3.35;;
18302;SDS011;9277;37.980;23.748;2023-03-11T14:40:23;7.13;;;2.05;;
18302;SDS011;9277;37.980;23.748;2023-03-11T14:42:50;7.55;;;2.10;;
18302;SDS011;9277;37.980;23.748;2023-03-11T14:45:18;6.40;;;2.65;;
18302;SDS011;9277;37.980;23.748;2023-03-11T14:47:47;4.07;;;1.88;;
18302;SDS011;9277;37.980;23.748;2023-03-11T14:50:16;11.27;;;2.42;;
18302;SDS011;9277;37.980;23.748;2023-03-11T14:52:45;9.02;;;2.38;;
18302;SDS011;9277;37.980;23.748;2023-03-11T14:55:14;9.13;;;2.60;;
18302;SDS011;9277;37.980;23.748;2023-03-11T14:57:41;8.80;;;2.63;;
18302;SDS011;9277;37.980;23.748;2023-03-11T15:00:12;7.90;;;2.15;;
18302;SDS011;9277;37.980;23.748;2023-03-11T15:02:41;8.85;;;2.65;;
18302;SDS011;9277;37.980;23.748;2023-03-11T15:05:10;6.40;;;2.42;;
18302;SDS011;9277;37.980;23.748;2023-03-11T15:07:41;6.50;;;2.70;;
18302;SDS011;9277;37.980;23.748;2023-03-11T15:10:11;5.93;;;2.22;;
18302;SDS011;9277;37.980;23.748;2023-03-11T15:12:39;7.65;;;2.20;;
18302;SDS011;9277;37.980;23.748;2023-03-11T15:15:19;6.28;;;2.47;;